Time;durP1;ratioP1;P1;durP2;ratioP2;P2;SDS_P1;SDS_P2;PMS_P1;PMS_P2;Temp;Humidity;BMP_temperature;BMP_pressure;BME280_temperature;BME280_humidity;BME280_pressure;Samples;Min_cycle;Max_cycle;Signal;HPM_P1;HPM_P2
2023/07/02 00:01:58;;;;;;;4.43;3.53;;;;;;;16.67;100.00;99778.88;4977085;28;20226;-75
2023/07/02 00:04:25;;;;;;;6.77;3.03;;;;;;;16.64;100.00;99781.91;4989158;28;20200;-75
2023/07/02 00:06:52;;;;;;;5.00;3.43;;;;;;;16.63;100.00;99780.22;4985250;28;20245;-75
2023/07/02 00:09:18;;;;;;;3.80;3.30;;;;;;;16.64;100.00;99773.00;4985065;28;20228;-74
2023/07/02 00:11:46;;;;;;;5.40;3.40;;;;;;;16.64;100.00;99783.75;4986479;28;20214;-76
2023/07/02 00:14:13;;;;;;;4.03;3.63;;;;;;;16.61;99.98;99778.66;4985687;28;20211;-76
2023/07/02 00:16:45;;;;;;;4.80;3.97;;;;;;;16.61;99.68;99775.97;4990514;28;20242;-75
2023/07/02 00:19:12;;;;;;;3.40;3.10;;;;;;;16.58;99.44;99774.44;4982986;28;20726;-75
2023/07/02 00:21:40;;;;;;;4.50;3.20;;;;;;;16.58;99.55;99773.59;4994125;28;20208;-75
2023/07/02 00:24:06;;;;;;;7.30;3.13;;;;;;;16.55;98.92;99776.56;4993380;28;20238;-74
2023/07/02 00:26:33;;;;;;;3.80;2.93;;;;;;;16.52;98.75;99772.34;4985026;28;20388;-75
2023/07/02 00:28:59;;;;;;;3.90;2.93;;;;;;;16.51;98.42;99776.03;4983317;28;20882;-75
2023/07/02 00:31:26;;;;;;;4.40;3.03;;;;;;;16.50;98.23;99782.41;4994357;28;20211;-75
2023/07/02 00:33:54;;;;;;;4.63;2.83;;;;;;;16.47;97.99;99777.38;4990435;28;20218;-76
2023/07/02 00:36:20;;;;;;;2.80;2.60;;;;;;;16.46;98.02;99774.84;4989743;28;20232;-77
2023/07/02 00:38:49;;;;;;;4.33;2.93;;;;;;;16.47;97.63;99774.69;4987775;28;20210;-73
2023/07/02 00:41:15;;;;;;;5.17;2.83;;;;;;;16.47;97.52;99779.22;4982981;28;20207;-75
2023/07/02 00:43:44;;;;;;;7.23;3.17;;;;;;;16.43;97.81;99770.63;4990469;28;20238;-75
2023/07/02 00:46:14;;;;;;;4.63;3.27;;;;;;;16.42;98.15;99770.78;4988284;28;20587;-74
2023/07/02 00:48:41;;;;;;;7.13;3.77;;;;;;;16.39;97.79;99777.28;4985480;28;20231;-74
2023/07/02 00:51:11;;;;;;;4.67;2.80;;;;;;;16.39;97.35;99781.81;4976674;28;20214;-76
2023/07/02 00:53:38;;;;;;;5.30;3.13;;;;;;;16.39;97.74;99782.69;4987030;28;20204;-76
2023/07/02 00:56:05;;;;;;;6.27;3.30;;;;;;;16.36;97.12;99772.22;4985159;28;20224;-75
2023/07/02 00:58:33;;;;;;;3.23;2.93;;;;;;;16.35;96.88;99775.06;4985949;28;20246;-76
2023/07/02 01:00:59;;;;;;;4.27;2.93;;;;;;;16.32;96.54;99776.22;4990009;28;20223;-76
2023/07/02 01:03:26;;;;;;;4.77;2.90;;;;;;;16.32;96.81;99777.06;4983316;28;20629;-75
2023/07/02 01:05:53;;;;;;;5.33;3.20;;;;;;;16.35;96.73;99773.22;4986429;28;20646;-76
2023/07/02 01:08:21;;;;;;;3.67;3.17;;;;;;;16.32;96.82;99770.84;4993327;28;20329;-76
2023/07/02 01:10:47;;;;;;;5.30;3.20;;;;;;;16.31;96.93;99769.16;4985921;28;20203;-76
2023/07/02 01:13:18;;;;;;;3.97;3.17;;;;;;;16.30;96.87;99773.69;4991192;28;20242;-76
2023/07/02 01:15:45;;;;;;;5.90;3.23;;;;;;;16.29;96.40;99771.19;4990660;28;20605;-76
2023/07/02 01:18:14;;;;;;;3.73;3.10;;;;;;;16.29;96.40;99769.34;4989490;28;20213;-75
2023/07/02 01:20:43;;;;;;;6.43;3.63;;;;;;;16.27;96.09;99773.19;4988352;28;20206;-75
2023/07/02 01:23:10;;;;;;;4.40;3.37;;;;;;;16.26;96.19;99766.13;4986756;28;20219;-73
2023/07/02 01:25:37;;;;;;;3.93;2.93;;;;;;;16.24;96.22;99762.72;4988445;28;20372;-75
2023/07/02 01:28:04;;;;;;;4.60;3.23;;;;;;;16.22;95.81;99759.34;4991456;28;20237;-74
2023/07/02 01:30:30;;;;;;;3.73;3.30;;;;;;;16.21;95.58;99758.50;4985368;28;20206;-74
2023/07/02 01:32:57;;;;;;;4.37;3.57;;;;;;;16.20;95.51;99750.59;4992306;28;20214;-75
2023/07/02 01:35:24;;;;;;;4.13;3.17;;;;;;;16.15;95.59;99739.47;4989029;28;20211;-76
2023/07/02 01:37:52;;;;;;;5.30;3.20;;;;;;;16.14;95.43;99740.47;4980295;28;20746;-75
2023/07/02 01:40:18;;;;;;;4.63;3.23;;;;;;;16.11;95.25;99741.63;4983501;28;20207;-75
2023/07/02 01:42:45;;;;;;;3.13;2.93;;;;;;;16.11;95.04;99760.44;4985393;28;20232;-75
2023/07/02 01:45:12;;;;;;;4.50;3.10;;;;;;;16.09;94.89;99765.13;4988406;28;20210;-74
2023/07/02 01:47:38;;;;;;;4.73;3.07;;;;;;;16.07;94.76;99771.66;4989223;28;20222;-75
2023/07/02 01:50:06;;;;;;;4.20;2.97;;;;;;;16.05;94.67;99771.78;4984605;28;20239;-75
2023/07/02 01:52:33;;;;;;;3.27;2.97;;;;;;;16.05;94.53;99771.78;4993210;28;20209;-74
2023/07/02 01:55:02;;;;;;;3.87;3.00;;;;;;;16.05;94.42;99773.63;4988752;28;20643;-74
2023/07/02 01:57:30;;;;;;;4.07;2.67;;;;;;;16.03;94.36;99781.00;4980770;28;20242;-74
2023/07/02 01:59:57;;;;;;;4.13;2.80;;;;;;;16.01;94.02;99777.63;4983896;28;20210;-76
2023/07/02 02:02:23;;;;;;;4.73;3.33;;;;;;;15.98;94.22;99784.97;4995299;28;20333;-75
2023/07/02 02:04:50;;;;;;;7.70;3.43;;;;;;;15.98;94.53;99784.97;4991133;28;20240;-75
2023/07/02 02:07:16;;;;;;;5.63;3.33;;;;;;;15.96;94.12;99786.13;4995966;28;20232;-76
2023/07/02 02:09:43;;;;;;;6.10;3.20;;;;;;;15.95;94.25;99784.44;4990827;28;20237;-76
2023/07/02 02:12:11;;;;;;;8.77;3.57;;;;;;;15.93;94.12;99791.81;4989373;28;20294;-76
2023/07/02 02:14:37;;;;;;;8.60;3.93;;;;;;;15.91;94.12;99789.28;4991190;28;20206;-77
2023/07/02 02:17:04;;;;;;;7.83;3.50;;;;;;;15.87;94.33;99797.78;4984408;28;20237;-76
2023/07/02 02:19:31;;;;;;;6.73;3.80;;;;;;;15.82;94.23;99794.72;4998523;28;20588;-76
2023/07/02 02:21:57;;;;;;;8.60;3.83;;;;;;;15.80;94.79;99796.69;4991221;28;20257;-76
2023/07/02 02:24:24;;;;;;;4.93;4.27;;;;;;;15.78;95.07;99801.38;4992316;28;20228;-76
2023/07/02 02:26:50;;;;;;;7.23;4.97;;;;;;;15.75;95.47;99793.63;4988322;28;20703;-74
2023/07/02 02:29:18;;;;;;;5.80;4.17;;;;;;;15.74;95.74;99794.63;4986226;28;20243;-76
2023/07/02 02:31:45;;;;;;;9.33;4.70;;;;;;;15.74;96.06;99798.16;4994788;28;20220;-75
2023/07/02 02:34:11;;;;;;;5.80;4.87;;;;;;;15.72;96.55;99802.84;4988063;28;20238;-76
2023/07/02 02:36:38;;;;;;;6.80;5.10;;;;;;;15.71;96.78;99795.78;4984485;28;20237;-74
2023/07/02 02:39:05;;;;;;;7.47;4.77;;;;;;;15.70;97.18;99801.28;4986659;28;20229;-76
2023/07/02 02:41:32;;;;;;;7.93;5.23;;;;;;;15.70;97.37;99799.44;4987011;28;20218;-76
2023/07/02 02:43:58;;;;;;;8.03;5.27;;;;;;;15.72;97.40;99799.31;4982104;28;20491;-76
2023/07/02 02:46:26;;;;;;;6.40;5.30;;;;;;;15.72;97.60;99799.31;4986534;28;20227;-75
2023/07/02 02:48:53;;;;;;;8.73;5.67;;;;;;;15.70;98.03;99791.41;4990230;28;20234;-76
2023/07/02 02:51:19;;;;;;;9.50;5.57;;;;;;;15.71;98.32;99797.63;4983290;28;20224;-76
2023/07/02 02:53:46;;;;;;;7.03;6.23;;;;;;;15.69;98.74;99795.06;4984061;28;20217;-76
2023/07/02 02:56:13;;;;;;;9.97;6.43;;;;;;;15.71;99.06;99795.78;4989033;28;20237;-75
2023/07/02 02:58:40;;;;;;;6.90;6.30;;;;;;;15.70;99.32;99786.03;4996500;28;20206;-75
2023/07/02 03:01:10;;;;;;;10.23;6.90;;;;;;;15.71;99.92;99787.72;4986889;28;20210;-75
2023/07/02 03:03:40;;;;;;;7.27;6.57;;;;;;;15.72;100.00;99786.72;4983689;28;20273;-72
2023/07/02 03:06:07;;;;;;;8.40;6.60;;;;;;;15.72;100.00;99781.34;4985630;28;20230;-75
2023/07/02 03:08:33;;;;;;;7.67;6.97;;;;;;;15.70;100.00;99785.19;4988569;28;20201;-73
2023/07/02 03:11:00;;;;;;;8.93;6.43;;;;;;;15.71;100.00;99792.25;4987715;28;20210;-75
2023/07/02 03:13:26;;;;;;;8.70;7.03;;;;;;;15.70;100.00;99788.72;4987953;28;20297;-77
2023/07/02 03:15:53;;;;;;;8.57;7.00;;;;;;;15.70;100.00;99786.03;4992595;28;20220;-75
2023/07/02 03:18:19;;;;;;;7.27;6.63;;;;;;;15.71;100.00;99782.34;4990756;28;20210;-75
2023/07/02 03:20:48;;;;;;;9.33;6.70;;;;;;;15.72;100.00;99786.72;4988268;28;20225;-75
2023/07/02 03:23:14;;;;;;;9.63;7.30;;;;;;;15.72;100.00;99786.72;4989354;28;20232;-75
2023/07/02 03:25:41;;;;;;;8.70;7.80;;;;;;;15.71;100.00;99793.09;4982525;28;20217;-75
2023/07/02 03:28:07;;;;;;;9.90;7.83;;;;;;;15.71;100.00;99779.66;4982572;28;20216;-76
2023/07/02 03:30:34;;;;;;;7.80;7.10;;;;;;;15.72;100.00;99780.50;4983600;28;20229;-75
2023/07/02 03:33:00;;;;;;;8.77;7.33;;;;;;;15.73;100.00;99779.53;4985197;28;20297;-75
2023/07/02 03:35:27;;;;;;;8.00;7.20;;;;;;;15.73;100.00;99785.72;4980358;28;20752;-76
2023/07/02 03:37:55;;;;;;;10.00;7.00;;;;;;;15.73;100.00;99788.41;4983158;28;20917;-75
2023/07/02 03:40:21;;;;;;;7.37;6.73;;;;;;;15.72;100.00;99776.00;4983694;28;20326;-75
2023/07/02 03:42:48;;;;;;;11.03;7.10;;;;;;;15.72;100.00;99781.34;4986205;28;20319;-75
2023/07/02 03:45:15;;;;;;;7.60;6.80;;;;;;;15.72;100.00;99781.34;4989437;28;20236;-75
2023/07/02 03:47:41;;;;;;;7.03;6.37;;;;;;;15.72;100.00;99783.19;4983290;28;20235;-75
2023/07/02 03:50:09;;;;;;;7.87;6.93;;;;;;;15.70;100.00;99783.34;4985952;28;20220;-75
2023/07/02 03:52:36;;;;;;;7.60;6.90;;;;;;;15.71;100.00;99776.97;4983461;28;20215;-75
2023/07/02 03:55:05;;;;;;;8.50;7.70;;;;;;;15.73;100.00;99779.53;4983496;28;20220;-76
2023/07/02 03:57:31;;;;;;;9.63;7.33;;;;;;;15.74;100.00;99781.22;4984511;28;20628;-75
2023/07/02 03:59:58;;;;;;;8.80;7.23;;;;;;;15.74;100.00;99781.22;4988025;28;20212;-75
2023/07/02 04:02:25;;;;;;;7.97;7.17;;;;;;;15.75;100.00;99788.28;4982274;28;20698;-75
2023/07/02 04:04:51;;;;;;;8.00;7.03;;;;;;;15.74;100.00;99792.78;4986671;28;20356;-76
2023/07/02 04:07:18;;;;;;;9.43;8.43;;;;;;;15.76;100.00;99788.13;4990746;28;20234;-76
2023/07/02 04:09:44;;;;;;;8.60;7.90;;;;;;;15.77;100.00;99784.41;4981759;28;20360;-76
2023/07/02 04:12:12;;;;;;;11.43;7.97;;;;;;;15.79;100.00;99786.94;4987091;28;20213;-74
2023/07/02 04:14:39;;;;;;;10.33;8.23;;;;;;;15.79;100.00;99795.84;4979897;28;20207;-75
2023/07/02 04:17:06;;;;;;;12.97;8.50;;;;;;;15.80;100.00;99796.69;4982960;28;20245;-74
2023/07/02 04:19:33;;;;;;;10.33;9.27;;;;;;;15.80;100.00;99802.06;4985021;28;20298;-75
2023/07/02 04:21:59;;;;;;;10.63;9.57;;;;;;;15.81;100.00;99788.50;4985262;28;20236;-76
2023/07/02 04:24:26;;;;;;;12.27;9.93;;;;;;;15.83;100.00;99791.88;4986916;28;20562;-75
2023/07/02 04:26:53;;;;;;;10.40;9.40;;;;;;;15.84;100.00;99793.56;4984920;28;20226;-75
2023/07/02 04:29:21;;;;;;;12.73;10.33;;;;;;;15.86;100.00;99796.94;4980101;28;20701;-75
2023/07/02 04:31:48;;;;;;;11.37;10.27;;;;;;;15.87;100.00;99803.16;4983054;28;20223;-76
2023/07/02 04:34:14;;;;;;;12.90;11.37;;;;;;;15.89;100.00;99785.91;4982916;28;20213;-75
2023/07/02 04:36:41;;;;;;;13.03;11.60;;;;;;;15.90;100.00;99805.56;4985397;28;20710;-75
2023/07/02 04:39:10;;;;;;;12.33;11.13;;;;;;;15.91;100.00;99802.72;4986979;28;20206;-75
2023/07/02 04:41:37;;;;;;;12.87;11.53;;;;;;;15.92;100.00;99800.88;4987963;28;20217;-75
2023/07/02 04:44:04;;;;;;;12.83;11.63;;;;;;;15.95;100.00;99805.91;4986393;28;20219;-75
2023/07/02 04:46:32;;;;;;;12.03;10.80;;;;;;;15.98;100.00;99809.16;4984336;28;20225;-75
2023/07/02 04:48:58;;;;;;;12.93;11.63;;;;;;;15.98;100.00;99816.34;4982563;28;20209;-74
2023/07/02 04:51:25;;;;;;;15.57;12.30;;;;;;;16.00;100.00;99822.44;4985755;28;20236;-74
2023/07/02 04:53:51;;;;;;;12.83;11.63;;;;;;;16.03;100.00;99832.03;4986702;28;20226;-74
2023/07/02 04:56:18;;;;;;;14.10;12.10;;;;;;;16.02;100.00;99855.34;4984278;28;20226;-74
2023/07/02 04:58:44;;;;;;;13.17;7.93;;;;;;;15.98;100.00;99875.44;4985509;28;20219;-72
2023/07/02 05:01:11;;;;;;;11.40;6.47;;;;;;;15.82;97.87;99853.78;4983583;28;20217;-73
2023/07/02 05:03:39;;;;;;;13.83;7.13;;;;;;;15.60;95.86;99855.00;4991925;28;20213;-72
2023/07/02 05:06:06;;;;;;;13.87;7.00;;;;;;;15.45;94.63;99867.19;4984344;28;20225;-74
2023/07/02 05:08:33;;;;;;;13.13;6.90;;;;;;;15.30;93.83;99864.16;4981088;28;20202;-72
2023/07/02 05:10:59;;;;;;;13.37;6.87;;;;;;;15.20;93.51;99850.78;4985140;28;20225;-73
2023/07/02 05:13:26;;;;;;;12.03;6.07;;;;;;;15.12;93.49;99861.38;4992105;28;20514;-74
2023/07/02 05:15:52;;;;;;;12.13;7.07;;;;;;;15.04;93.86;99850.56;4983176;28;20203;-73
2023/07/02 05:18:19;;;;;;;11.20;6.57;;;;;;;14.97;94.11;99857.47;4992693;28;20219;-75
2023/07/02 05:20:47;;;;;;;16.03;7.00;;;;;;;14.93;94.28;99856.06;4986642;28;20207;-72
2023/07/02 05:23:13;;;;;;;10.23;6.87;;;;;;;14.86;94.41;99852.28;4985290;28;20297;-75
2023/07/02 05:25:40;;;;;;;12.37;6.57;;;;;;;14.82;94.20;99853.56;4984880;28;20286;-72
2023/07/02 05:28:06;;;;;;;13.40;6.37;;;;;;;14.74;94.31;99861.44;4979133;28;20296;-74
2023/07/02 05:30:33;;;;;;;13.43;6.50;;;;;;;14.72;94.33;99860.75;4982336;28;20310;-72
2023/07/02 05:33:00;;;;;;;11.33;7.17;;;;;;;14.67;94.17;99846.94;4984457;28;21149;-74
2023/07/02 05:35:26;;;;;;;13.47;7.30;;;;;;;14.65;94.53;99849.75;4985317;28;20218;-74
2023/07/02 05:37:54;;;;;;;14.03;7.20;;;;;;;14.63;94.51;99848.22;4986875;28;20230;-74
2023/07/02 05:40:20;;;;;;;14.10;6.77;;;;;;;14.61;94.92;99856.38;4980617;28;20209;-75
2023/07/02 05:42:47;;;;;;;10.37;6.97;;;;;;;14.62;95.08;99852.72;4986565;28;20598;-75
2023/07/02 05:45:14;;;;;;;11.37;6.80;;;;;;;14.62;95.85;99851.88;4989070;28;20569;-75
2023/07/02 05:47:40;;;;;;;12.17;7.10;;;;;;;14.63;96.31;99865.13;4984410;28;20313;-75
2023/07/02 05:50:09;;;;;;;10.33;6.60;;;;;;;14.66;97.23;99870.22;4986897;28;20234;-75
2023/07/02 05:52:36;;;;;;;13.70;7.37;;;;;;;14.69;97.29;99874.44;4987774;28;20223;-75
2023/07/02 05:55:04;;;;;;;14.30;7.17;;;;;;;14.72;98.12;99874.97;4987041;28;20312;-75
2023/07/02 05:57:31;;;;;;;13.90;7.07;;;;;;;14.74;98.40;99875.69;4989967;28;20232;-74
2023/07/02 05:59:57;;;;;;;14.13;7.20;;;;;;;14.76;98.80;99879.09;4990036;28;20684;-75
2023/07/02 06:02:24;;;;;;;14.37;6.90;;;;;;;14.82;99.27;99875.00;4989453;28;20215;-75
2023/07/02 06:04:50;;;;;;;11.57;7.40;;;;;;;14.85;99.39;99882.75;4985406;28;20213;-74
2023/07/02 06:07:17;;;;;;;12.10;7.20;;;;;;;14.86;99.83;99879.09;4985959;28;20258;-74
2023/07/02 06:09:44;;;;;;;12.83;7.47;;;;;;;14.91;100.00;99880.31;4990283;28;20208;-76
2023/07/02 06:12:12;;;;;;;12.53;6.73;;;;;;;14.97;100.00;99872.72;4987185;28;20213;-75
2023/07/02 06:14:38;;;;;;;13.13;6.73;;;;;;;15.02;100.00;99881.19;4988552;28;20209;-75
2023/07/02 06:17:07;;;;;;;15.37;7.27;;;;;;;15.08;100.00;99885.94;4988302;28;20776;-74
2023/07/02 06:19:34;;;;;;;15.07;7.07;;;;;;;15.17;100.00;99885.94;4983274;28;20230;-73
2023/07/02 06:22:00;;;;;;;15.03;6.90;;;;;;;15.31;100.00;99886.47;4988206;28;20229;-75
2023/07/02 06:24:27;;;;;;;12.47;7.33;;;;;;;15.46;100.00;99890.34;4987590;28;20210;-74
2023/07/02 06:26:53;;;;;;;12.23;6.63;;;;;;;15.66;100.00;99888.47;4989601;28;20325;-75
2023/07/02 06:29:23;;;;;;;12.57;6.80;;;;;;;15.78;100.00;99887.28;4986820;28;20445;-74
2023/07/02 06:31:50;;;;;;;11.80;6.27;;;;;;;15.84;99.46;99878.63;4985280;28;20248;-73
2023/07/02 06:34:16;;;;;;;10.47;6.33;;;;;;;15.96;99.60;99877.44;4987786;28;20218;-74
2023/07/02 06:36:43;;;;;;;8.47;5.90;;;;;;;16.13;99.57;99891.88;4988324;28;20681;-74
2023/07/02 06:39:10;;;;;;;13.90;6.37;;;;;;;16.30;99.13;99888.41;4988432;28;20218;-73
2023/07/02 06:41:37;;;;;;;13.90;6.47;;;;;;;16.48;98.34;99889.22;4987721;28;20662;-75
2023/07/02 06:44:04;;;;;;;13.63;6.80;;;;;;;16.65;97.52;99876.84;4991644;22;20744;-72
2023/07/02 06:46:32;;;;;;;9.63;6.00;;;;;;;16.84;96.76;99891.97;4949933;28;20227;-74
2023/07/02 06:48:58;;;;;;;9.93;5.97;;;;;;;16.98;94.01;99891.41;4955869;28;20593;-74
2023/07/02 06:51:27;;;;;;;11.40;5.67;;;;;;;17.11;93.13;99897.22;4955566;28;20672;-73
2023/07/02 06:53:53;;;;;;;10.13;5.60;;;;;;;17.26;91.08;99900.16;4949966;28;20234;-73
2023/07/02 06:56:20;;;;;;;10.23;5.90;;;;;;;17.36;89.29;99900.94;4949056;28;20212;-78
2023/07/02 06:58:47;;;;;;;13.73;6.07;;;;;;;17.47;87.90;99902.50;4948485;29;20365;-76
2023/07/02 07:01:13;;;;;;;10.90;6.10;;;;;;;17.60;87.43;99909.13;4949310;29;20226;-72
2023/07/02 07:03:41;;;;;;;12.43;5.80;;;;;;;17.74;86.20;99917.63;4940520;28;20226;-72
2023/07/02 07:06:08;;;;;;;9.40;5.67;;;;;;;17.85;84.66;99912.81;4946989;28;20370;-72
2023/07/02 07:08:38;;;;;;;9.13;5.70;;;;;;;17.98;84.09;99918.59;4946007;29;20384;-72
2023/07/02 07:11:04;;;;;;;13.27;6.10;;;;;;;18.11;83.17;99918.13;4947678;29;20235;-73
2023/07/02 07:13:31;;;;;;;13.53;6.03;;;;;;;18.26;83.27;99921.91;4942325;28;20236;-76
2023/07/02 07:15:58;;;;;;;11.37;5.00;;;;;;;18.38;81.76;99925.97;4944591;29;20294;-73
2023/07/02 07:18:24;;;;;;;9.77;5.30;;;;;;;18.48;79.96;99925.81;4947469;29;20222;-75
2023/07/02 07:20:53;;;;;;;11.83;5.90;;;;;;;18.51;78.31;99933.59;4945366;28;20213;-73
2023/07/02 07:23:19;;;;;;;9.90;5.03;;;;;;;18.61;77.62;99928.09;4948698;28;20434;-72
2023/07/02 07:25:46;;;;;;;9.60;5.80;;;;;;;18.70;76.46;99927.06;4949773;28;20292;-71
2023/07/02 07:28:15;;;;;;;9.87;4.77;;;;;;;18.84;75.75;99928.25;4949250;28;20206;-73
2023/07/02 07:30:42;;;;;;;11.80;6.30;;;;;;;18.96;75.00;99929.63;4949252;29;20308;-72
2023/07/02 07:33:09;;;;;;;11.70;5.63;;;;;;;19.07;72.95;99935.53;4949745;28;20241;-75
2023/07/02 07:35:35;;;;;;;7.63;4.80;;;;;;;19.17;71.90;99940.75;4947103;28;20211;-72
2023/07/02 07:38:03;;;;;;;11.43;5.17;;;;;;;19.22;68.59;99935.69;4947280;28;20215;-73
2023/07/02 07:40:30;;;;;;;10.97;5.40;;;;;;;19.23;67.24;99939.22;4942795;29;20216;-74
2023/07/02 07:42:56;;;;;;;12.03;5.80;;;;;;;19.27;67.19;99941.44;4945025;28;20740;-72
2023/07/02 07:45:23;;;;;;;9.97;5.50;;;;;;;19.32;67.62;99952.56;4948792;28;20208;-74
2023/07/02 07:47:49;;;;;;;12.70;6.03;;;;;;;19.37;67.18;99944.78;4949509;29;20217;-72
2023/07/02 07:50:16;;;;;;;10.33;6.10;;;;;;;19.40;64.97;99933.63;4949188;28;20201;-72
2023/07/02 07:52:43;;;;;;;12.13;5.73;;;;;;;19.40;63.35;99935.50;4946565;28;20311;-71
2023/07/02 07:55:11;;;;;;;13.33;5.90;;;;;;;19.47;62.44;99941.91;4948610;28;20207;-72
2023/07/02 07:57:38;;;;;;;16.27;6.33;;;;;;;19.54;60.48;99942.91;4948184;28;20218;-74
2023/07/02 08:00:07;;;;;;;9.10;5.60;;;;;;;19.60;59.32;99954.91;4949205;29;20211;-74
2023/07/02 08:02:34;;;;;;;11.83;6.23;;;;;;;19.68;59.05;99953.03;4940590;28;20341;-75
2023/07/02 08:05:00;;;;;;;13.90;5.90;;;;;;;19.78;58.86;99947.44;4945167;29;20305;-72
2023/07/02 08:07:27;;;;;;;10.83;5.80;;;;;;;19.89;58.06;99959.72;4943211;29;20254;-74
2023/07/02 08:09:54;;;;;;;11.87;6.00;;;;;;;19.97;57.00;99959.72;4949466;29;20279;-76
2023/07/02 08:12:22;;;;;;;11.77;5.90;;;;;;;20.08;55.95;99959.31;4947663;28;20324;-75
2023/07/02 08:14:48;;;;;;;13.90;6.23;;;;;;;20.19;55.46;99964.34;4950356;28;20212;-75
2023/07/02 08:17:15;;;;;;;14.85;6.68;;;;;;;20.29;54.95;99966.84;4949918;28;20202;-73
2023/07/02 08:19:41;;;;;;;12.80;6.37;;;;;;;20.41;56.17;99968.19;4945697;28;20201;-71
2023/07/02 08:22:08;;;;;;;16.50;5.80;;;;;;;20.52;56.65;99969.63;4943843;29;20214;-79
2023/07/02 08:24:34;;;;;;;15.02;6.38;;;;;;;20.56;55.33;99963.69;4947288;28;20725;-71
2023/07/02 08:27:02;;;;;;;15.48;6.82;;;;;;;20.52;55.55;99984.00;4948343;29;20217;-75
2023/07/02 08:29:30;;;;;;;12.05;5.80;;;;;;;20.44;54.34;99981.31;4950363;28;20212;-74
2023/07/02 08:31:57;;;;;;;9.95;5.90;;;;;;;20.31;54.22;99979.16;4945486;29;20227;-71
2023/07/02 08:34:24;;;;;;;12.18;6.22;;;;;;;20.22;54.28;99982.09;4947052;28;20244;-74
2023/07/02 08:36:53;;;;;;;9.50;5.80;;;;;;;20.17;54.38;99984.47;4940740;29;20215;-71
2023/07/02 08:39:19;;;;;;;13.80;6.25;;;;;;;20.09;54.31;99988.88;4946906;28;20208;-72
2023/07/02 08:41:47;;;;;;;11.60;6.22;;;;;;;20.08;54.39;99997.16;4944328;28;20233;-75
2023/07/02 08:44:14;;;;;;;13.33;6.10;;;;;;;20.02;54.37;99993.31;4944444;28;20271;-74
2023/07/02 08:46:43;;;;;;;15.43;6.33;;;;;;;19.98;53.60;100000.06;4944635;28;20651;-74
2023/07/02 08:49:10;;;;;;;12.90;5.90;;;;;;;19.87;52.90;100000.47;4941334;29;20699;-73
2023/07/02 08:51:37;;;;;;;14.60;6.37;;;;;;;19.79;53.03;100003.16;4948076;29;20230;-72
2023/07/02 08:54:04;;;;;;;12.83;6.27;;;;;;;19.70;53.36;100004.22;4948372;28;20233;-74
2023/07/02 08:56:31;;;;;;;12.23;6.93;;;;;;;19.57;53.26;100003.88;4946506;28;20218;-73
2023/07/02 08:58:58;;;;;;;15.47;6.77;;;;;;;19.52;53.62;100014.34;4944566;29;20298;-74
2023/07/02 09:01:24;;;;;;;11.00;6.03;;;;;;;19.48;54.40;100013.81;4945605;29;20216;-73
2023/07/02 09:03:52;;;;;;;11.70;6.47;;;;;;;19.55;55.26;100005.88;4946181;28;20236;-74
2023/07/02 09:06:19;;;;;;;13.27;6.43;;;;;;;19.61;55.18;100005.22;4943351;28;20591;-75
2023/07/02 09:08:46;;;;;;;15.70;6.87;;;;;;;19.62;54.30;100002.34;4941165;28;20250;-75
2023/07/02 09:11:14;;;;;;;13.37;7.20;;;;;;;19.53;53.11;100003.34;4944881;28;20235;-72
2023/07/02 09:13:45;;;;;;;14.23;6.00;;;;;;;19.52;53.60;100017.91;4943670;29;20713;-76
2023/07/02 09:16:22;;;;;;;14.87;6.80;;;;;;;19.58;54.04;100013.66;4951568;28;20677;-73
2023/07/02 09:19:01;;;;;;;15.33;6.80;;;;;;;19.63;54.07;100004.03;4948602;28;20221;-72
2023/07/02 09:21:28;;;;;;;13.00;6.93;;;;;;;19.68;53.72;100007.06;4948246;28;20312;-76
2023/07/02 09:23:55;;;;;;;12.23;6.53;;;;;;;19.71;53.53;100000.47;4945143;28;20229;-75
2023/07/02 09:26:22;;;;;;;13.33;6.40;;;;;;;19.75;52.81;99999.97;4940359;28;20212;-76
2023/07/02 09:28:49;;;;;;;10.73;5.87;;;;;;;19.84;52.71;100000.78;4948808;28;20235;-74
2023/07/02 09:31:16;;;;;;;13.43;6.37;;;;;;;19.96;52.07;100009.38;4949532;29;20463;-74
2023/07/02 09:33:43;;;;;;;11.90;6.17;;;;;;;20.02;50.77;100012.22;4949179;28;20323;-75
2023/07/02 09:36:12;;;;;;;8.93;5.83;;;;;;;20.09;50.63;100004.25;4944380;29;20216;-73
2023/07/02 09:38:40;;;;;;;11.27;5.97;;;;;;;20.09;49.03;100013.22;4949492;29;20230;-74
2023/07/02 09:41:08;;;;;;;11.20;5.90;;;;;;;20.08;48.40;100011.53;4947923;28;20642;-75
2023/07/02 09:43:36;;;;;;;13.27;6.47;;;;;;;20.15;48.88;100019.78;4947820;29;20245;-73
2023/07/02 09:46:03;;;;;;;14.97;6.57;;;;;;;20.24;48.66;100009.81;4947705;29;20244;-74
2023/07/02 09:48:34;;;;;;;14.53;6.00;;;;;;;20.33;48.41;100011.44;4950551;28;20215;-75
2023/07/02 09:51:01;;;;;;;9.75;6.13;;;;;;;20.43;48.35;100022.91;4946184;28;20220;-77
2023/07/02 09:53:30;;;;;;;13.37;6.90;;;;;;;20.51;47.98;100012.06;4948822;28;20239;-75
2023/07/02 09:55:56;;;;;;;13.23;6.30;;;;;;;20.63;47.87;100013.34;4941909;28;20218;-74
2023/07/02 09:58:23;;;;;;;10.83;6.07;;;;;;;20.66;46.56;100015.72;4951066;28;20219;-75
2023/07/02 10:00:50;;;;;;;11.85;6.25;;;;;;;20.68;45.62;100016.38;4946389;29;20205;-74
2023/07/02 10:03:17;;;;;;;11.48;5.50;;;;;;;20.76;46.46;100046.13;4951600;28;20233;-75
2023/07/02 10:05:43;;;;;;;9.50;5.82;;;;;;;20.83;45.47;100012.91;4946041;29;20209;-75
2023/07/02 10:08:15;;;;;;;10.98;6.20;;;;;;;20.87;45.21;100019.66;4947294;29;20299;-75
2023/07/02 10:10:43;;;;;;;10.48;5.68;;;;;;;20.93;45.45;100022.50;4946449;28;20280;-75
2023/07/02 10:13:09;;;;;;;10.52;6.60;;;;;;;21.01;45.75;100022.44;4943266;28;20255;-74
2023/07/02 10:15:37;;;;;;;11.60;6.13;;;;;;;21.10;45.42;100023.22;4948364;29;20681;-75
2023/07/02 10:18:05;;;;;;;10.25;5.85;;;;;;;21.20;46.25;100028.44;4951480;29;20244;-77
2023/07/02 10:20:37;;;;;;;13.23;6.30;;;;;;;21.34;45.71;100030.34;4948210;28;20209;-74
2023/07/02 10:23:04;;;;;;;10.15;6.03;;;;;;;21.48;45.65;100043.13;4950193;28;20247;-75
2023/07/02 10:25:34;;;;;;;12.05;6.20;;;;;;;21.54;43.75;100033.41;4949861;29;20215;-74
2023/07/02 10:28:14;;;;;;;9.18;5.88;;;;;;;21.52;43.26;100038.16;4951272;29;20292;-74
2023/07/02 10:30:41;;;;;;;12.00;5.90;;;;;;;21.50;43.52;100041.03;4949362;29;20216;-74
2023/07/02 10:33:09;;;;;;;11.65;6.18;;;;;;;21.42;42.04;100035.72;4951092;28;20236;-75
2023/07/02 10:35:36;;;;;;;9.55;5.85;;;;;;;21.34;42.65;100033.91;4948082;28;20213;-76
2023/07/02 10:38:03;;;;;;;12.15;5.80;;;;;;;21.27;43.12;100048.34;4951247;29;20221;-74
2023/07/02 10:40:30;;;;;;;9.07;5.68;;;;;;;21.22;43.78;100045.34;4946101;28;20227;-75
2023/07/02 10:42:57;;;;;;;10.95;6.78;;;;;;;21.26;44.75;100047.50;4948215;28;20623;-73
2023/07/02 10:45:34;;;;;;;11.13;5.70;;;;;;;21.29;44.77;100030.91;4946419;29;20598;-74
2023/07/02 10:48:03;;;;;;;11.02;5.47;;;;;;;21.36;44.92;100037.25;4948919;28;20215;-75
2023/07/02 10:50:29;;;;;;;12.45;5.60;;;;;;;21.45;44.57;100040.75;4949918;28;20966;-76
2023/07/02 10:52:56;;;;;;;11.18;5.25;;;;;;;21.49;43.35;100039.38;4946146;29;20270;-74
2023/07/02 10:55:24;;;;;;;8.80;5.25;;;;;;;21.52;42.87;100036.28;4946631;28;20213;-75
2023/07/02 10:58:02;;;;;;;10.57;4.82;;;;;;;21.65;42.71;100036.53;4942697;28;20213;-74
2023/07/02 11:00:30;;;;;;;10.98;5.63;;;;;;;21.77;41.69;100028.78;4946515;28;20620;-75
2023/07/02 11:02:58;;;;;;;8.95;5.15;;;;;;;21.91;41.98;100030.66;4949124;29;20232;-75
2023/07/02 11:05:24;;;;;;;9.55;5.75;;;;;;;21.99;40.95;100038.72;4946474;28;20301;-75
2023/07/02 11:07:56;;;;;;;10.95;5.07;;;;;;;22.04;40.85;100036.31;4950800;29;20208;-75
2023/07/02 11:10:24;;;;;;;9.35;5.22;;;;;;;22.10;41.27;100040.16;4945111;28;20232;-77
2023/07/02 11:12:50;;;;;;;8.70;5.72;;;;;;;22.19;41.13;100039.06;4949050;28;20317;-73
2023/07/02 11:15:18;;;;;;;9.50;5.50;;;;;;;22.30;41.68;100045.88;4947612;29;20213;-73
2023/07/02 11:17:45;;;;;;;7.90;4.82;;;;;;;22.37;40.76;100041.41;4945979;28;20213;-73
2023/07/02 11:20:14;;;;;;;9.85;4.80;;;;;;;22.39;38.77;100042.06;4945721;29;20209;-76
2023/07/02 11:22:41;;;;;;;7.45;5.32;;;;;;;22.34;38.39;100053.47;4945056;28;20239;-71
2023/07/02 11:25:15;;;;;;;8.70;4.90;;;;;;;22.35;39.10;100043.44;4950262;28;20217;-75